Time;durP1;ratioP1;P1;durP2;ratioP2;P2;SDS_P1;SDS_P2;PMS_P1;PMS_P2;Temp;Humidity;BMP_temperature;BMP_pressure;BME280_temperature;BME280_humidity;BME280_pressure;Samples;Min_cycle;Max_cycle;Signal;HPM_P1;HPM_P2
2022/02/08 00:01:15;;;;;;;3.00;2.88;;;3.60;92.60;;;;;;5065895;28;20692;-74
2022/02/08 00:03:42;;;;;;;3.70;3.40;;;3.60;92.30;;;;;;5074366;28;20213;-74
2022/02/08 00:06:23;;;;;;;2.85;2.72;;;3.60;92.60;;;;;;5063854;28;20336;-74
2022/02/08 00:08:50;;;;;;;3.33;3.13;;;3.60;92.80;;;;;;5067318;28;20208;-74
2022/02/08 00:11:17;;;;;;;2.80;2.70;;;3.60;92.60;;;;;;5066323;28;20223;-74
2022/02/08 00:13:45;;;;;;;2.53;2.42;;;3.70;92.40;;;;;;5067083;28;20202;-73
2022/02/08 00:16:13;;;;;;;2.42;2.33;;;3.70;92.40;;;;;;5067810;28;20586;-73
2022/02/08 00:18:40;;;;;;;2.92;2.72;;;3.70;92.40;;;;;;5066263;28;20233;-74
2022/02/08 00:21:07;;;;;;;2.60;2.50;;;3.70;92.10;;;;;;5066151;28;20221;-75
2022/02/08 00:23:34;;;;;;;2.50;2.40;;;3.70;91.70;;;;;;5060582;28;20205;-74
2022/02/08 00:26:01;;;;;;;2.80;2.67;;;3.70;91.80;;;;;;5057393;28;20218;-74
2022/02/08 00:28:28;;;;;;;2.72;2.63;;;3.80;91.60;;;;;;5053944;28;20235;-73
2022/02/08 00:30:56;;;;;;;2.78;2.67;;;3.80;92.00;;;;;;5052151;28;20217;-74
2022/02/08 00:33:23;;;;;;;2.42;2.33;;;3.90;92.00;;;;;;5052472;28;20225;-74
2022/02/08 00:35:50;;;;;;;2.33;2.22;;;3.80;92.10;;;;;;5047099;28;20219;-74
2022/02/08 00:38:18;;;;;;;2.67;2.47;;;3.80;92.20;;;;;;5102157;22;20234;-69
2022/02/08 00:40:47;;;;;;;2.63;2.53;;;3.80;92.00;;;;;;5059925;28;20222;-69
2022/02/08 00:43:20;;;;;;;2.60;2.40;;;3.70;92.10;;;;;;5063172;28;20244;-69
2022/02/08 00:45:52;;;;;;;2.55;2.45;;;3.80;91.30;;;;;;5064094;28;20237;-70
2022/02/08 00:48:28;;;;;;;3.22;2.38;;;3.90;90.70;;;;;;5062940;28;20222;-69
2022/02/08 00:50:55;;;;;;;2.10;2.00;;;4.20;90.60;;;;;;5065194;28;20221;-69
2022/02/08 00:53:22;;;;;;;2.20;2.10;;;4.30;89.70;;;;;;5063964;28;20205;-69
2022/02/08 00:55:50;;;;;;;2.22;2.13;;;4.50;89.10;;;;;;5065607;28;20253;-70
2022/02/08 00:58:17;;;;;;;2.28;2.17;;;4.50;88.70;;;;;;5064148;28;20295;-69
2022/02/08 01:00:44;;;;;;;2.38;2.22;;;4.50;88.90;;;;;;5064139;28;20278;-69
2022/02/08 01:03:11;;;;;;;2.35;2.25;;;4.50;89.90;;;;;;5068645;28;20265;-69
2022/02/08 01:05:44;;;;;;;2.20;2.10;;;4.40;90.00;;;;;;5064452;28;20233;-69
2022/02/08 01:08:11;;;;;;;2.25;2.15;;;4.40;89.60;;;;;;5065031;28;20218;-69
2022/02/08 01:10:40;;;;;;;2.15;2.05;;;4.40;88.40;;;;;;5065283;28;20222;-69
2022/02/08 01:13:08;;;;;;;2.53;2.30;;;4.40;88.70;;;;;;5068374;28;20214;-69
2022/02/08 01:15:37;;;;;;;2.13;2.05;;;4.40;87.40;;;;;;5067388;28;20291;-69
2022/02/08 01:18:06;;;;;;;1.90;1.80;;;4.40;88.30;;;;;;5066405;28;20232;-69
2022/02/08 01:20:35;;;;;;;2.30;2.20;;;4.40;87.60;;;;;;5065538;28;20214;-70
2022/02/08 01:23:06;;;;;;;2.35;2.25;;;4.50;85.40;;;;;;5066945;28;20679;-69
2022/02/08 01:25:38;;;;;;;2.55;2.45;;;4.60;85.00;;;;;;5066442;28;20271;-69
2022/02/08 01:28:14;;;;;;;2.38;2.28;;;4.70;85.00;;;;;;5066486;28;20300;-68
2022/02/08 01:30:47;;;;;;;2.20;2.10;;;4.70;85.40;;;;;;5064716;28;20217;-69
2022/02/08 01:33:35;;;;;;;2.13;2.03;;;4.70;84.80;;;;;;5065609;28;20284;-68
2022/02/08 01:36:25;;;;;;;2.20;2.10;;;4.70;84.80;;;;;;5064273;28;20228;-69
2022/02/08 01:38:59;;;;;;;2.63;2.40;;;4.70;83.70;;;;;;5068149;28;20222;-69
2022/02/08 01:41:39;;;;;;;2.40;2.30;;;4.60;85.00;;;;;;5065490;28;20333;-69
2022/02/08 01:44:18;;;;;;;2.22;2.13;;;4.40;86.00;;;;;;5066947;28;20221;-69
2022/02/08 01:47:07;;;;;;;2.38;2.28;;;4.30;87.50;;;;;;5069999;28;20704;-69
2022/02/08 01:49:38;;;;;;;2.20;2.10;;;4.00;89.00;;;;;;5065839;28;20229;-70
2022/02/08 01:52:07;;;;;;;2.47;2.38;;;3.70;90.30;;;;;;5070017;28;20225;-69
2022/02/08 01:54:35;;;;;;;2.60;2.50;;;3.50;90.60;;;;;;5067919;28;20237;-69
2022/02/08 01:57:02;;;;;;;2.45;2.35;;;3.50;90.40;;;;;;5069427;28;20214;-69
2022/02/08 01:59:29;;;;;;;2.40;2.30;;;3.60;90.00;;;;;;5067738;28;20271;-68
2022/02/08 02:01:57;;;;;;;2.83;2.72;;;3.60;90.00;;;;;;5071755;28;20222;-69
2022/02/08 02:04:24;;;;;;;2.55;2.45;;;3.50;90.60;;;;;;5067955;28;20680;-68
2022/02/08 02:06:51;;;;;;;2.13;2.03;;;3.30;91.20;;;;;;5065742;28;20218;-69
2022/02/08 02:09:18;;;;;;;2.30;2.20;;;3.10;91.60;;;;;;5069169;28;20477;-69
2022/02/08 02:11:46;;;;;;;3.03;2.80;;;3.00;92.10;;;;;;5068408;28;20229;-69
2022/02/08 02:14:13;;;;;;;2.85;2.65;;;2.70;93.00;;;;;;5073899;28;20201;-69
2022/02/08 02:16:53;;;;;;;3.08;2.88;;;2.50;93.30;;;;;;5068012;28;20221;-69
2022/02/08 02:19:22;;;;;;;2.60;2.50;;;2.50;94.30;;;;;;5066820;28;20224;-69
2022/02/08 02:21:51;;;;;;;2.45;2.35;;;2.40;94.30;;;;;;5067328;28;20225;-69
2022/02/08 02:24:19;;;;;;;2.70;2.60;;;2.30;94.20;;;;;;5068285;28;20194;-69
2022/02/08 02:26:46;;;;;;;2.35;2.25;;;2.20;94.20;;;;;;5065736;28;20214;-69
2022/02/08 02:29:14;;;;;;;2.45;2.35;;;2.20;94.40;;;;;;5067700;28;20584;-68
2022/02/08 02:31:42;;;;;;;2.90;2.70;;;2.10;94.50;;;;;;5063921;28;20275;-69
2022/02/08 02:34:09;;;;;;;2.70;2.60;;;2.20;94.20;;;;;;5068957;28;20252;-69
2022/02/08 02:36:39;;;;;;;2.72;2.58;;;2.20;94.10;;;;;;5069357;28;20602;-68
2022/02/08 02:39:07;;;;;;;2.60;2.50;;;2.20;94.50;;;;;;5068427;28;20226;-69
2022/02/08 02:41:37;;;;;;;2.47;2.38;;;2.20;94.00;;;;;;5062844;28;20217;-69
2022/02/08 02:44:06;;;;;;;2.22;2.13;;;2.20;94.30;;;;;;5064764;28;20271;-68
2022/02/08 02:46:33;;;;;;;3.03;2.83;;;2.20;93.80;;;;;;5068964;28;20220;-69
2022/02/08 02:49:00;;;;;;;3.20;2.95;;;2.30;93.70;;;;;;5066844;28;20218;-68
2022/02/08 02:51:28;;;;;;;2.95;2.75;;;2.30;93.50;;;;;;5064720;28;22254;-68
2022/02/08 02:53:55;;;;;;;2.92;2.72;;;2.40;93.50;;;;;;5067120;28;20297;-69
2022/02/08 02:56:23;;;;;;;2.60;2.50;;;2.40;93.60;;;;;;5066055;28;20217;-69
2022/02/08 02:58:57;;;;;;;2.45;2.30;;;2.40;93.30;;;;;;5068887;28;20225;-69
2022/02/08 03:01:30;;;;;;;2.83;2.72;;;2.40;93.40;;;;;;5066468;28;20241;-69
2022/02/08 03:04:08;;;;;;;3.10;2.90;;;2.40;93.00;;;;;;5069194;28;20245;-69
2022/02/08 03:17:51;;;;;;;2.60;2.50;;;2.50;92.50;;;;;;5067491;28;20233;-68
2022/02/08 03:20:19;;;;;;;2.70;2.60;;;2.50;93.00;;;;;;5070572;28;20632;-68
2022/02/08 03:22:46;;;;;;;2.30;2.20;;;2.40;93.10;;;;;;5069857;28;20256;-69
2022/02/08 03:25:13;;;;;;;2.50;2.40;;;2.40;93.20;;;;;;5070242;28;20248;-68
2022/02/08 03:27:40;;;;;;;2.60;2.50;;;2.40;93.00;;;;;;5071748;28;20267;-68
2022/02/08 03:30:10;;;;;;;2.72;2.63;;;2.40;93.00;;;;;;5069745;28;20198;-69
2022/02/08 03:32:37;;;;;;;2.90;2.70;;;2.50;92.90;;;;;;5067720;28;20268;-69
2022/02/08 03:35:05;;;;;;;2.78;2.60;;;2.50;92.60;;;;;;5075520;28;20494;-68
2022/02/08 03:37:33;;;;;;;2.40;2.30;;;2.60;91.90;;;;;;5068389;28;20218;-69
2022/02/08 03:40:06;;;;;;;2.85;2.65;;;2.80;91.50;;;;;;5072370;28;20206;-68
2022/02/08 03:42:38;;;;;;;2.90;2.70;;;2.90;91.00;;;;;;5071222;28;20209;-68
2022/02/08 03:45:11;;;;;;;2.58;2.47;;;3.00;90.60;;;;;;5071555;28;20321;-69
2022/02/08 03:47:38;;;;;;;2.70;2.60;;;3.00;90.90;;;;;;5073635;28;20217;-68
2022/02/08 03:50:06;;;;;;;2.42;2.33;;;3.00;91.20;;;;;;5068488;28;20206;-69
2022/02/08 03:52:33;;;;;;;2.80;2.70;;;3.00;91.40;;;;;;5067571;28;20218;-69
2022/02/08 03:55:00;;;;;;;2.40;2.30;;;2.90;91.40;;;;;;5070214;28;20214;-69
2022/02/08 03:57:28;;;;;;;2.50;2.40;;;2.90;91.40;;;;;;5073267;28;20249;-69
2022/02/08 03:59:55;;;;;;;2.75;2.65;;;3.00;90.40;;;;;;5068915;28;20214;-68
2022/02/08 04:02:36;;;;;;;2.42;2.33;;;3.10;91.20;;;;;;5073428;28;20292;-69
2022/02/08 04:05:06;;;;;;;2.67;2.58;;;3.10;90.40;;;;;;5074440;28;20721;-69
2022/02/08 04:07:38;;;;;;;2.63;2.53;;;3.10;90.40;;;;;;5070264;28;20210;-68
2022/02/08 04:10:07;;;;;;;2.65;2.55;;;3.00;90.40;;;;;;5066744;28;20640;-69
2022/02/08 04:12:42;;;;;;;2.60;2.42;;;3.00;91.20;;;;;;5070793;28;20707;-68
2022/02/08 04:18:21;;;;;;;2.53;2.42;;;2.80;91.30;;;;;;5065172;28;20230;-68
2022/02/08 04:32:12;;;;;;;2.83;2.50;;;2.40;92.00;;;;;;5074864;28;20217;-68
2022/02/08 04:40:33;;;;;;;2.42;2.33;;;2.60;91.00;;;;;;5069227;28;20205;-68
2022/02/08 04:43:11;;;;;;;2.58;2.47;;;2.60;90.90;;;;;;5067673;28;20236;-68
2022/02/08 04:45:44;;;;;;;2.30;2.20;;;2.60;91.10;;;;;;5064891;28;20193;-68
2022/02/08 04:48:22;;;;;;;2.15;2.13;;;2.70;90.70;;;;;;5063331;28;20229;-68
2022/02/08 04:50:55;;;;;;;2.28;2.17;;;2.80;90.70;;;;;;5069189;28;20198;-69
2022/02/08 04:53:32;;;;;;;2.55;2.45;;;2.70;90.70;;;;;;5067979;28;20281;-68
2022/02/08 04:56:06;;;;;;;2.72;2.63;;;2.70;90.90;;;;;;5067133;28;20579;-69
2022/02/08 04:58:40;;;;;;;2.47;2.38;;;2.60;91.20;;;;;;5071075;28;20217;-68
2022/02/08 05:01:13;;;;;;;2.60;2.50;;;2.50;91.20;;;;;;5066043;28;20719;-68
2022/02/08 05:37:21;;;;;;;3.08;2.90;;;2.40;91.20;;;;;;4982749;28;20225;-68
2022/02/08 05:42:49;;;;;;;3.08;2.97;;;2.40;91.10;;;;;;5045774;28;20236;-68
2022/02/08 05:45:27;;;;;;;3.10;2.90;;;2.50;90.70;;;;;;5071697;28;20205;-69
2022/02/08 05:47:58;;;;;;;2.50;2.40;;;2.40;90.90;;;;;;5066951;28;20221;-69
2022/02/08 05:50:38;;;;;;;3.10;3.00;;;2.50;90.80;;;;;;5066575;28;20194;-68
2022/02/08 05:53:14;;;;;;;2.58;2.47;;;2.40;91.10;;;;;;5065760;28;20232;-69
2022/02/08 05:55:42;;;;;;;3.00;2.90;;;2.40;91.70;;;;;;5068462;28;20198;-68
2022/02/08 05:58:09;;;;;;;2.33;2.22;;;2.30;92.00;;;;;;5068338;28;20221;-69
2022/02/08 06:00:39;;;;;;;3.05;2.88;;;2.30;92.20;;;;;;5068788;28;20204;-69
2022/02/08 06:03:07;;;;;;;2.70;2.60;;;2.30;92.10;;;;;;5065197;28;20219;-69
2022/02/08 06:05:34;;;;;;;2.65;2.55;;;2.20;92.10;;;;;;5067005;28;20244;-69
2022/02/08 06:08:01;;;;;;;2.60;2.50;;;2.20;92.40;;;;;;5069934;28;20213;-68
2022/02/08 06:10:30;;;;;;;3.20;3.03;;;2.20;91.70;;;;;;5065705;28;20252;-69
2022/02/08 06:12:58;;;;;;;2.70;2.60;;;2.30;91.30;;;;;;5060550;28;20222;-69
2022/02/08 06:15:27;;;;;;;2.85;2.75;;;2.30;91.20;;;;;;5061599;28;20195;-69
2022/02/08 06:17:57;;;;;;;2.67;2.58;;;2.30;91.20;;;;;;5065718;28;20218;-68
2022/02/08 06:20:25;;;;;;;3.00;2.90;;;2.40;90.70;;;;;;5069394;28;20689;-68
2022/02/08 06:22:52;;;;;;;2.90;2.78;;;2.40;91.40;;;;;;5067649;28;20291;-68
2022/02/08 06:25:20;;;;;;;2.97;2.88;;;2.30;91.80;;;;;;5065036;28;20217;-69
2022/02/08 06:27:51;;;;;;;2.95;2.75;;;2.30;92.10;;;;;;5066309;28;20228;-69
2022/02/08 06:30:22;;;;;;;2.95;2.75;;;2.20;92.30;;;;;;5066422;28;20190;-69
2022/02/08 06:32:50;;;;;;;3.60;3.35;;;2.20;92.00;;;;;;5061747;28;20229;-69
2022/02/08 06:35:21;;;;;;;3.50;3.22;;;2.20;92.10;;;;;;5059218;28;20195;-68
2022/02/08 06:37:48;;;;;;;3.45;3.25;;;2.20;92.30;;;;;;5058539;28;20228;-68
2022/02/08 06:40:15;;;;;;;3.30;3.10;;;2.20;91.90;;;;;;5087888;22;20238;-75
2022/02/08 06:42:44;;;;;;;3.35;3.15;;;2.20;91.70;;;;;;5039429;28;20227;-74
2022/02/08 06:45:12;;;;;;;2.78;2.60;;;2.20;91.60;;;;;;5046059;28;20199;-74
2022/02/08 06:47:41;;;;;;;3.08;2.88;;;2.30;91.30;;;;;;5046119;28;20234;-74
2022/02/08 06:50:10;;;;;;;3.20;3.00;;;2.40;90.80;;;;;;5043093;28;20223;-74
2022/02/08 06:52:37;;;;;;;2.85;2.75;;;2.40;91.20;;;;;;5042856;28;20301;-74
2022/02/08 06:55:07;;;;;;;2.90;2.70;;;2.40;91.50;;;;;;5043139;28;20196;-74
2022/02/08 06:57:48;;;;;;;2.95;2.78;;;2.40;92.00;;;;;;5043444;28;20218;-72
2022/02/08 07:00:17;;;;;;;2.55;2.45;;;2.40;91.70;;;;;;5043190;28;20215;-73
2022/02/08 07:02:46;;;;;;;2.78;2.67;;;2.40;91.70;;;;;;5038872;28;20717;-74
2022/02/08 07:05:13;;;;;;;2.65;2.55;;;2.40;91.40;;;;;;5040688;28;20203;-74
2022/02/08 07:07:40;;;;;;;2.75;2.65;;;2.40;91.70;;;;;;5036406;28;20222;-73
2022/02/08 07:10:07;;;;;;;2.75;2.65;;;2.40;91.70;;;;;;5044886;28;20709;-74
2022/02/08 07:12:34;;;;;;;2.92;2.83;;;2.40;92.10;;;;;;5039897;28;20221;-74
2022/02/08 07:15:07;;;;;;;3.05;2.95;;;2.40;92.10;;;;;;5049758;28;20214;-75
2022/02/08 07:17:34;;;;;;;3.03;2.92;;;2.40;92.20;;;;;;5041580;28;20297;-74
2022/02/08 07:20:03;;;;;;;3.20;3.00;;;2.40;91.90;;;;;;5038702;28;20220;-74
2022/02/08 07:22:31;;;;;;;3.90;3.70;;;2.40;92.20;;;;;;5036857;28;20693;-75
2022/02/08 07:24:58;;;;;;;3.70;3.50;;;2.40;92.20;;;;;;5041928;28;20209;-74
2022/02/08 07:27:25;;;;;;;3.75;3.55;;;2.40;92.10;;;;;;5043716;28;20697;-75
2022/02/08 07:29:53;;;;;;;3.60;3.40;;;2.50;92.00;;;;;;5040427;28;20216;-74
2022/02/08 07:32:29;;;;;;;3.15;2.95;;;2.50;92.40;;;;;;5042638;28;20221;-75
2022/02/08 07:35:09;;;;;;;3.15;3.05;;;2.50;92.80;;;;;;5042986;28;20211;-76
2022/02/08 07:37:48;;;;;;;4.00;2.63;;;2.90;92.30;;;;;;5038611;28;20480;-75
2022/02/08 07:40:27;;;;;;;2.45;2.35;;;4.10;91.20;;;;;;5039239;28;20257;-74
2022/02/08 07:42:55;;;;;;;2.78;2.60;;;5.30;90.20;;;;;;5043480;28;20211;-74
2022/02/08 07:45:23;;;;;;;2.22;2.13;;;6.20;88.60;;;;;;5045149;28;20202;-74
2022/02/08 07:47:51;;;;;;;2.00;1.90;;;6.90;86.60;;;;;;5041750;28;20227;-76
2022/02/08 07:50:19;;;;;;;2.75;2.45;;;7.80;86.60;;;;;;5047004;28;20215;-76
2022/02/08 07:52:50;;;;;;;2.70;2.50;;;8.60;84.30;;;;;;5041953;28;20222;-76
2022/02/08 07:55:17;;;;;;;2.30;2.20;;;9.20;85.00;;;;;;5047721;28;20562;-79
2022/02/08 07:57:45;;;;;;;6.15;2.47;;;9.80;82.10;;;;;;5044925;28;20230;-78
2022/02/08 08:00:12;;;;;;;2.40;2.13;;;10.10;78.90;;;;;;5047263;28;20715;-74
2022/02/08 08:02:40;;;;;;;2.58;2.38;;;10.20;78.80;;;;;;5046684;28;20733;-74
2022/02/08 08:05:09;;;;;;;2.03;1.92;;;10.20;78.80;;;;;;5047815;28;20685;-74
2022/02/08 08:07:36;;;;;;;2.50;2.08;;;10.30;78.80;;;;;;5044215;28;20213;-75
2022/02/08 08:10:06;;;;;;;2.20;2.03;;;10.80;81.00;;;;;;5046193;28;20466;-76
2022/02/08 08:12:35;;;;;;;2.10;2.00;;;11.30;79.00;;;;;;5042239;28;20234;-77
2022/02/08 08:15:11;;;;;;;2.00;1.90;;;11.60;77.50;;;;;;5037620;28;20460;-74
2022/02/08 08:17:54;;;;;;;2.22;2.13;;;12.10;77.10;;;;;;5043124;28;20326;-75
2022/02/08 08:20:21;;;;;;;1.90;1.80;;;12.50;78.00;;;;;;5043937;28;20217;-73
2022/02/08 08:22:48;;;;;;;1.67;1.58;;;12.70;72.90;;;;;;5042848;28;21151;-74
2022/02/08 08:25:17;;;;;;;2.92;2.10;;;12.90;72.80;;;;;;5045387;28;20218;-75
2022/02/08 08:27:44;;;;;;;2.08;1.85;;;12.80;71.60;;;;;;5040161;28;20219;-74
2022/02/08 08:30:12;;;;;;;2.55;1.90;;;12.80;73.70;;;;;;5042293;28;20284;-78
2022/02/08 08:32:39;;;;;;;2.10;1.83;;;12.80;72.00;;;;;;5042953;28;20222;-76
2022/02/08 08:35:08;;;;;;;2.55;2.35;;;12.70;73.30;;;;;;5040469;28;20199;-74
2022/02/08 08:37:40;;;;;;;3.00;1.83;;;12.80;72.70;;;;;;5038709;28;20223;-74
2022/02/08 08:40:17;;;;;;;1.95;1.85;;;12.80;71.60;;;;;;5043446;28;20767;-73
2022/02/08 08:42:56;;;;;;;4.03;1.80;;;13.00;72.20;;;;;;5039746;28;20327;-72
2022/02/08 08:48:42;;;;;;;3.42;1.90;;;13.70;71.20;;;;;;5043338;28;20356;-77
2022/02/08 08:51:22;;;;;;;1.73;1.63;;;14.00;71.30;;;;;;5042540;28;20705;-78
2022/02/08 08:53:49;;;;;;;1.67;1.58;;;13.90;68.30;;;;;;5042507;28;20568;-74
2022/02/08 08:56:16;;;;;;;1.70;1.60;;;13.70;68.00;;;;;;5042948;28;20204;-75
2022/02/08 08:58:44;;;;;;;1.83;1.70;;;13.60;68.60;;;;;;5041778;28;20272;-78
2022/02/08 09:01:12;;;;;;;1.75;1.65;;;13.70;69.30;;;;;;5040923;28;20286;-76
2022/02/08 09:03:40;;;;;;;1.70;1.60;;;13.80;71.90;;;;;;5043515;28;20222;-72
2022/02/08 09:06:08;;;;;;;2.75;1.70;;;14.30;71.80;;;;;;5042570;28;20202;-75
2022/02/08 09:08:39;;;;;;;2.05;1.95;;;14.60;70.10;;;;;;5043146;28;20332;-74
2022/02/08 09:11:12;;;;;;;2.38;1.98;;;14.80;70.00;;;;;;5044730;28;20199;-77
2022/02/08 09:13:45;;;;;;;2.15;1.92;;;14.60;68.50;;;;;;5037149;28;20230;-76
2022/02/08 09:16:24;;;;;;;2.28;1.70;;;13.90;66.90;;;;;;5040842;28;20206;-77
2022/02/08 09:29:47;;;;;;;2.30;2.10;;;12.60;71.70;;;;;;5040957;28;20219;-74
2022/02/08 09:32:19;;;;;;;2.03;1.92;;;12.40;70.20;;;;;;5043058;28;20231;-75
2022/02/08 09:34:48;;;;;;;2.35;1.80;;;12.30;70.60;;;;;;5040008;28;20195;-74
2022/02/08 09:37:17;;;;;;;1.83;1.70;;;12.40;70.10;;;;;;5038144;28;20219;-73
2022/02/08 09:39:46;;;;;;;3.13;1.80;;;13.10;68.90;;;;;;5036614;28;20223;-75
2022/02/08 09:42:14;;;;;;;1.85;1.75;;;13.30;67.80;;;;;;5036160;28;20223;-75
2022/02/08 09:44:42;;;;;;;2.88;1.80;;;13.50;67.60;;;;;;5041278;28;20209;-74
2022/02/08 09:47:13;;;;;;;2.42;1.90;;;13.30;64.90;;;;;;5042812;28;20231;-74
2022/02/08 09:49:50;;;;;;;2.13;1.95;;;13.20;67.50;;;;;;5039438;28;20222;-74
2022/02/08 09:52:18;;;;;;;2.00;1.90;;;13.30;67.70;;;;;;5039539;28;20223;-74
2022/02/08 09:54:47;;;;;;;2.75;1.67;;;13.90;65.90;;;;;;5040146;28;20252;-76
2022/02/08 09:57:14;;;;;;;1.95;1.85;;;14.20;65.70;;;;;;5039187;28;20230;-75
2022/02/08 09:59:41;;;;;;;2.75;1.50;;;14.60;64.60;;;;;;5040448;28;20693;-75
2022/02/08 10:02:09;;;;;;;1.70;1.60;;;14.50;63.50;;;;;;5040026;28;20491;-74
2022/02/08 10:04:36;;;;;;;1.80;1.70;;;14.40;63.40;;;;;;5041356;28;20662;-76
2022/02/08 10:07:13;;;;;;;1.65;1.55;;;14.40;62.50;;;;;;5041135;28;20206;-75
2022/02/08 10:09:40;;;;;;;1.83;1.52;;;14.00;64.00;;;;;;5038718;28;20210;-75
2022/02/08 10:12:09;;;;;;;2.20;2.00;;;13.70;64.30;;;;;;5038005;28;20294;-73
2022/02/08 10:18:53;;;;;;;2.05;1.65;;;14.10;63.40;;;;;;5038405;28;20734;-74
2022/02/08 10:23:22;;;;;;;2.72;1.77;;;14.20;65.40;;;;;;4980784;28;20255;-75
2022/02/08 10:26:00;;;;;;;2.00;1.65;;;14.00;65.30;;;;;;5022679;28;20202;-74
2022/02/08 10:28:51;;;;;;;3.35;2.22;;;13.80;64.60;;;;;;5040738;28;20218;-75
2022/02/08 10:31:43;;;;;;;2.72;2.30;;;13.20;64.60;;;;;;5040489;28;20214;-75
2022/02/08 10:39:59;;;;;;;2.38;1.85;;;13.30;65.80;;;;;;5034811;28;20530;-73
2022/02/08 10:42:28;;;;;;;2.42;1.65;;;13.80;64.20;;;;;;5037628;28;20296;-73
2022/02/08 10:44:56;;;;;;;1.55;1.45;;;13.90;63.20;;;;;;5039720;28;20549;-74
2022/02/08 10:47:34;;;;;;;2.30;1.70;;;13.60;63.00;;;;;;5038640;28;20306;-73
2022/02/08 10:50:02;;;;;;;2.20;2.00;;;13.50;63.00;;;;;;5041214;28;20279;-73
2022/02/08 10:52:30;;;;;;;2.90;1.65;;;13.70;64.30;;;;;;5040430;28;20227;-75
2022/02/08 10:55:06;;;;;;;1.50;1.40;;;13.60;62.80;;;;;;5038891;28;20298;-74
2022/02/08 10:57:45;;;;;;;1.73;1.63;;;13.60;61.60;;;;;;5037278;28;20297;-75
2022/02/08 11:00:13;;;;;;;2.03;1.83;;;13.70;61.90;;;;;;5038798;28;20223;-74
2022/02/08 11:02:48;;;;;;;2.80;1.80;;;13.70;62.30;;;;;;5034462;28;20214;-73
2022/02/08 11:05:22;;;;;;;1.95;1.85;;;13.80;63.70;;;;;;5038943;28;20194;-74
2022/02/08 11:08:15;;;;;;;2.75;1.70;;;13.80;64.40;;;;;;5041938;28;20300;-73
2022/02/08 11:10:59;;;;;;;1.85;1.75;;;13.90;64.60;;;;;;5035745;28;20217;-75
2022/02/08 11:13:39;;;;;;;2.47;2.03;;;14.00;63.60;;;;;;5036665;28;20641;-72
2022/02/08 11:16:21;;;;;;;2.50;1.70;;;14.10;63.60;;;;;;5037553;28;20230;-77
2022/02/08 11:19:11;;;;;;;1.98;1.73;;;14.00;63.80;;;;;;5032852;28;20225;-76
2022/02/08 11:25:41;;;;;;;1.60;1.50;;;14.10;61.60;;;;;;5092333;27;20290;-75
2022/02/08 11:28:15;;;;;;;1.70;1.60;;;14.10;60.90;;;;;;5099460;28;20193;-74
2022/02/08 11:30:56;;;;;;;2.25;1.90;;;14.20;62.10;;;;;;5100886;28;20257;-77
2022/02/08 11:33:47;;;;;;;2.33;1.73;;;14.00;61.50;;;;;;5100661;28;20193;-76
2022/02/08 11:39:17;;;;;;;1.90;1.80;;;14.30;62.70;;;;;;5096929;28;20235;-72
2022/02/08 11:53:36;;;;;;;2.22;2.03;;;13.70;62.70;;;;;;5071490;28;20627;-75
2022/02/08 11:56:27;;;;;;;4.13;2.05;;;13.90;64.60;;;;;;5085896;27;20223;-74
2022/02/08 11:59:17;;;;;;;2.22;1.90;;;14.20;63.70;;;;;;5096476;28;20910;-74
2022/02/08 12:04:52;;;;;;;1.90;1.80;;;14.30;61.50;;;;;;5071771;28;20237;-75
2022/02/08 12:07:20;;;;;;;1.83;1.73;;;14.10;60.30;;;;;;5095291;28;20209;-74
2022/02/08 12:09:50;;;;;;;2.53;2.35;;;13.90;61.60;;;;;;5097115;28;20217;-76
2022/02/08 12:49:17;;;;;;;1.60;1.50;;;14.40;61.00;;;;;;5086575;28;20659;-73
2022/02/08 12:52:27;;;;;;;1.88;1.77;;;14.60;60.40;;;;;;5083257;28;20228;-73
2022/02/08 12:57:37;;;;;;;1.92;1.83;;;14.70;59.60;;;;;;5084336;28;20222;-76
2022/02/08 13:00:24;;;;;;;1.77;1.67;;;14.60;61.10;;;;;;5083027;28;20213;-76
2022/02/08 13:03:17;;;;;;;1.85;1.75;;;14.50;60.80;;;;;;5095517;28;20221;-77
2022/02/08 13:24:44;;;;;;;2.03;1.80;;;14.00;62.50;;;;;;5048081;28;20239;-74
2022/02/08 14:01:51;;;;;;;1.60;1.50;;;14.60;60.70;;;;;;5082649;28;20410;-75
2022/02/08 14:07:09;;;;;;;3.78;1.45;;;14.90;61.10;;;;;;5081196;28;20287;-76
2022/02/08 14:09:54;;;;;;;1.50;1.40;;;15.00;60.00;;;;;;5085540;28;20225;-75
2022/02/08 14:15:45;;;;;;;1.48;1.38;;;15.30;59.80;;;;;;5081527;28;20214;-76
2022/02/08 14:21:07;;;;;;;1.50;1.40;;;15.50;60.00;;;;;;5076118;28;20567;-75
2022/02/08 15:00:14;;;;;;;2.15;1.95;;;13.50;64.60;;;;;;5060082;28;20297;-74
2022/02/08 15:05:40;;;;;;;2.08;1.98;;;13.20;66.00;;;;;;5061113;28;20763;-74
2022/02/08 15:08:18;;;;;;;1.85;1.45;;;13.10;66.80;;;;;;5063234;28;20505;-74
2022/02/08 15:10:50;;;;;;;1.92;1.80;;;12.90;67.00;;;;;;5063196;28;20236;-75
2022/02/08 15:13:20;;;;;;;3.15;1.98;;;12.70;67.80;;;;;;5060610;28;20212;-74
2022/02/08 15:16:03;;;;;;;2.40;2.20;;;12.50;68.80;;;;;;5065730;28;20229;-75
2022/02/08 15:18:32;;;;;;;2.20;2.10;;;12.40;69.90;;;;;;5060859;28;20222;-75
2022/02/08 15:21:00;;;;;;;1.83;1.73;;;12.30;70.70;;;;;;5077002;28;20624;-75
2022/02/08 15:23:27;;;;;;;1.88;1.77;;;12.30;71.00;;;;;;5063101;28;20205;-75
2022/02/08 15:25:57;;;;;;;1.48;1.38;;;12.20;71.30;;;;;;5065030;28;20521;-75
2022/02/08 15:28:25;;;;;;;1.63;1.52;;;12.10;71.20;;;;;;5061442;28;20521;-76
2022/02/08 15:30:53;;;;;;;1.77;1.67;;;12.00;71.70;;;;;;5060146;28;20301;-75
2022/02/08 15:33:21;;;;;;;1.67;1.58;;;12.00;71.50;;;;;;5063671;28;20194;-75
2022/02/08 15:35:50;;;;;;;1.80;1.67;;;12.00;71.20;;;;;;5064051;28;20255;-73
2022/02/08 15:38:17;;;;;;;1.55;1.45;;;11.90;71.20;;;;;;5080659;28;20224;-75
2022/02/08 15:40:45;;;;;;;1.50;1.40;;;11.80;71.30;;;;;;5082413;28;21292;-76
2022/02/08 15:43:13;;;;;;;1.52;1.42;;;11.70;71.00;;;;;;5082431;28;20193;-74
2022/02/08 15:45:47;;;;;;;1.60;1.50;;;11.70;71.40;;;;;;5083949;28;20742;-73
2022/02/08 15:48:20;;;;;;;1.83;1.73;;;11.60;71.90;;;;;;5082733;28;20645;-73
2022/02/08 15:50:56;;;;;;;1.75;1.65;;;11.50;72.10;;;;;;5080428;28;20208;-73
2022/02/08 15:53:36;;;;;;;1.55;1.48;;;11.40;72.40;;;;;;5082816;28;20204;-74
2022/02/08 16:07:01;;;;;;;1.80;1.70;;;11.10;75.40;;;;;;5039362;28;20536;-69
2022/02/08 16:09:34;;;;;;;1.80;1.70;;;11.10;75.80;;;;;;5040054;28;20203;-69
2022/02/08 16:12:24;;;;;;;2.00;1.80;;;11.10;76.60;;;;;;5046741;28;20219;-70
2022/02/08 16:17:44;;;;;;;2.55;2.40;;;11.00;77.00;;;;;;5041460;28;20225;-69
2022/02/08 16:20:20;;;;;;;2.75;2.55;;;10.90;77.00;;;;;;5043744;28;20225;-69
2022/02/08 16:25:49;;;;;;;3.45;3.15;;;10.70;76.90;;;;;;5034614;28;20226;-70
2022/02/08 16:28:21;;;;;;;6.38;5.55;;;10.60;77.60;;;;;;5040492;28;20214;-70
2022/02/08 16:31:27;;;;;;;13.55;9.00;;;10.50;77.90;;;;;;5041540;28;20199;-70
2022/02/08 16:53:33;;;;;;;36.17;25.40;;;10.20;75.10;;;;;;5046485;28;20327;-71
2022/02/08 16:56:19;;;;;;;28.50;20.67;;;10.10;75.40;;;;;;5044776;28;20238;-72
2022/02/08 16:58:53;;;;;;;26.33;18.17;;;10.00;75.50;;;;;;5045160;28;20837;-74
2022/02/08 17:01:25;;;;;;;27.75;19.42;;;9.90;76.10;;;;;;5044268;28;20227;-73
2022/02/08 17:03:53;;;;;;;28.48;19.45;;;9.80;76.30;;;;;;5063319;28;20222;-72
2022/02/08 17:06:22;;;;;;;27.05;18.27;;;9.70;77.10;;;;;;5062167;28;20221;-74
2022/02/08 17:08:51;;;;;;;26.52;17.55;;;9.60;77.50;;;;;;5062418;28;20206;-71
2022/02/08 17:11:27;;;;;;;23.42;16.23;;;9.60;77.50;;;;;;5068667;28;20563;-70
2022/02/08 17:47:15;;;;;;;16.98;12.93;;;8.80;78.90;;;;;;5084686;28;20208;-73
2022/02/08 17:49:42;;;;;;;13.07;9.73;;;8.70;79.10;;;;;;5081421;28;20220;-72
2022/02/08 17:52:09;;;;;;;13.48;8.85;;;8.60;79.80;;;;;;5081404;28;20736;-72
2022/02/08 17:54:37;;;;;;;8.10;7.03;;;8.50;80.00;;;;;;5090768;28;20221;-75
2022/02/08 17:57:05;;;;;;;6.70;6.00;;;8.40;80.00;;;;;;5093796;28;20201;-77
2022/02/08 17:59:35;;;;;;;5.40;4.90;;;8.40;80.40;;;;;;5091484;28;20630;-75
2022/02/08 18:02:02;;;;;;;5.20;4.70;;;8.40;80.90;;;;;;5093415;28;20221;-72
2022/02/08 18:04:29;;;;;;;4.45;4.05;;;8.40;81.00;;;;;;5082864;28;20225;-75
2022/02/08 18:06:56;;;;;;;5.40;4.10;;;8.40;80.80;;;;;;5083635;28;20221;-72
2022/02/08 18:09:26;;;;;;;3.75;3.45;;;8.30;81.00;;;;;;5081845;28;20217;-72
2022/02/08 18:11:55;;;;;;;4.13;3.42;;;8.30;81.10;;;;;;5077765;28;22431;-74
2022/02/08 18:14:22;;;;;;;5.63;3.38;;;8.30;81.10;;;;;;5082090;28;20709;-72
2022/02/08 18:17:03;;;;;;;3.38;3.13;;;8.20;80.30;;;;;;5084303;28;20190;-73
2022/02/08 18:19:33;;;;;;;4.13;3.72;;;8.20;80.90;;;;;;5091980;28;20224;-74
2022/02/08 18:22:20;;;;;;;3.22;2.92;;;8.20;81.10;;;;;;5095741;28;20225;-72
2022/02/08 18:24:59;;;;;;;3.28;3.08;;;8.20;79.40;;;;;;5087496;28;20237;-71
2022/02/08 18:27:45;;;;;;;3.33;3.03;;;8.30;80.20;;;;;;5082223;28;20205;-72
2022/02/08 18:58:06;;;;;;;23.58;14.25;;;7.80;81.50;;;;;;5083267;28;20250;-71
2022/02/08 19:09:07;;;;;;;8.38;6.70;;;7.60;81.90;;;;;;5058501;28;20198;-71
2022/02/08 19:11:47;;;;;;;9.65;7.00;;;7.60;82.20;;;;;;5076714;28;20225;-72
2022/02/08 19:17:22;;;;;;;6.30;5.40;;;7.60;82.30;;;;;;5078197;28;20303;-72
2022/02/08 19:19:57;;;;;;;5.65;4.72;;;7.60;82.90;;;;;;5081794;28;20229;-74
2022/02/08 19:22:26;;;;;;;5.22;4.72;;;7.60;82.60;;;;;;5080573;28;20229;-73